sensor_id;sensor_type;location;lat;lon;timestamp;P1;durP1;ratioP1;P2;durP2;ratioP2
7493;SDS011;3788;49.902;8.590;2022-08-19T00:00:06;10.27;;;9.37;;
7493;SDS011;3788;49.902;8.590;2022-08-19T00:02:40;11.13;;;10.13;;
7493;SDS011;3788;49.902;8.590;2022-08-19T00:05:08;10.47;;;9.47;;
7493;SDS011;3788;49.902;8.590;2022-08-19T00:07:36;10.60;;;9.60;;
7493;SDS011;3788;49.902;8.590;2022-08-19T00:10:22;10.53;;;9.53;;
7493;SDS011;3788;49.902;8.590;2022-08-19T00:12:50;11.00;;;9.90;;
7493;SDS011;3788;49.902;8.590;2022-08-19T00:15:18;10.53;;;9.53;;
7493;SDS011;3788;49.902;8.590;2022-08-19T00:17:46;11.63;;;10.43;;
7493;SDS011;3788;49.902;8.590;2022-08-19T00:20:14;10.70;;;9.80;;
7493;SDS011;3788;49.902;8.590;2022-08-19T00:22:43;10.73;;;9.73;;
7493;SDS011;3788;49.902;8.590;2022-08-19T00:25:12;10.17;;;9.20;;
7493;SDS011;3788;49.902;8.590;2022-08-19T00:27:40;10.80;;;9.70;;
7493;SDS011;3788;49.902;8.590;2022-08-19T00:30:08;10.57;;;9.57;;
7493;SDS011;3788;49.902;8.590;2022-08-19T00:32:36;11.20;;;10.10;;
7493;SDS011;3788;49.902;8.590;2022-08-19T00:35:04;11.37;;;10.27;;
7493;SDS011;3788;49.902;8.590;2022-08-19T00:37:31;10.33;;;9.40;;
7493;SDS011;3788;49.902;8.590;2022-08-19T00:39:59;10.67;;;9.60;;
7493;SDS011;3788;49.902;8.590;2022-08-19T00:42:27;10.77;;;9.77;;
7493;SDS011;3788;49.902;8.590;2022-08-19T00:44:55;9.97;;;9.07;;
7493;SDS011;3788;49.902;8.590;2022-08-19T00:47:22;9.67;;;8.77;;
7493;SDS011;3788;49.902;8.590;2022-08-19T00:49:50;9.93;;;9.00;;
7493;SDS011;3788;49.902;8.590;2022-08-19T00:52:20;10.53;;;9.53;;
7493;SDS011;3788;49.902;8.590;2022-08-19T00:54:49;10.93;;;9.93;;
7493;SDS011;3788;49.902;8.590;2022-08-19T00:57:18;9.70;;;8.90;;
7493;SDS011;3788;49.902;8.590;2022-08-19T00:59:52;10.80;;;9.80;;
7493;SDS011;3788;49.902;8.590;2022-08-19T01:02:23;11.23;;;10.17;;
7493;SDS011;3788;49.902;8.590;2022-08-19T01:04:50;12.00;;;10.20;;
7493;SDS011;3788;49.902;8.590;2022-08-19T01:07:16;12.10;;;11.00;;
7493;SDS011;3788;49.902;8.590;2022-08-19T01:09:44;10.60;;;9.60;;
7493;SDS011;3788;49.902;8.590;2022-08-19T01:12:11;10.63;;;9.63;;
7493;SDS011;3788;49.902;8.590;2022-08-19T01:14:39;11.33;;;10.07;;
7493;SDS011;3788;49.902;8.590;2022-08-19T01:17:08;9.97;;;8.97;;
7493;SDS011;3788;49.902;8.590;2022-08-19T01:19:37;10.00;;;9.07;;
7493;SDS011;3788;49.902;8.590;2022-08-19T01:22:07;10.50;;;9.40;;
7493;SDS011;3788;49.902;8.590;2022-08-19T01:24:39;10.37;;;9.37;;
7493;SDS011;3788;49.902;8.590;2022-08-19T01:27:06;11.00;;;10.00;;
7493;SDS011;3788;49.902;8.590;2022-08-19T01:29:34;10.73;;;9.80;;
7493;SDS011;3788;49.902;8.590;2022-08-19T01:32:04;12.00;;;10.80;;
7493;SDS011;3788;49.902;8.590;2022-08-19T01:34:31;12.20;;;11.00;;
7493;SDS011;3788;49.902;8.590;2022-08-19T01:36:59;11.47;;;10.37;;
7493;SDS011;3788;49.902;8.590;2022-08-19T01:39:31;12.47;;;11.27;;
7493;SDS011;3788;49.902;8.590;2022-08-19T01:42:00;11.37;;;10.27;;
7493;SDS011;3788;49.902;8.590;2022-08-19T01:44:28;11.70;;;10.50;;
7493;SDS011;3788;49.902;8.590;2022-08-19T01:46:54;11.83;;;10.63;;
7493;SDS011;3788;49.902;8.590;2022-08-19T01:49:22;10.30;;;9.27;;
7493;SDS011;3788;49.902;8.590;2022-08-19T01:51:51;10.83;;;9.80;;
7493;SDS011;3788;49.902;8.590;2022-08-19T01:54:19;10.47;;;9.47;;
7493;SDS011;3788;49.902;8.590;2022-08-19T01:56:47;10.60;;;9.60;;
7493;SDS011;3788;49.902;8.590;2022-08-19T01:59:17;10.53;;;9.53;;
7493;SDS011;3788;49.902;8.590;2022-08-19T02:01:46;10.00;;;9.07;;
7493;SDS011;3788;49.902;8.590;2022-08-19T02:04:13;10.00;;;9.07;;
7493;SDS011;3788;49.902;8.590;2022-08-19T02:06:40;9.80;;;8.90;;
7493;SDS011;3788;49.902;8.590;2022-08-19T02:09:07;9.43;;;8.60;;
7493;SDS011;3788;49.902;8.590;2022-08-19T02:11:35;9.80;;;8.90;;
7493;SDS011;3788;49.902;8.590;2022-08-19T02:14:03;9.20;;;8.40;;
7493;SDS011;3788;49.902;8.590;2022-08-19T02:16:33;9.50;;;8.63;;
7493;SDS011;3788;49.902;8.590;2022-08-19T02:19:01;8.97;;;8.17;;
7493;SDS011;3788;49.902;8.590;2022-08-19T02:21:29;9.37;;;8.57;;
7493;SDS011;3788;49.902;8.590;2022-08-19T02:23:56;8.53;;;7.73;;
7493;SDS011;3788;49.902;8.590;2022-08-19T02:29:45;8.83;;;8.03;;
7493;SDS011;3788;49.902;8.590;2022-08-19T02:32:15;9.47;;;8.57;;
7493;SDS011;3788;49.902;8.590;2022-08-19T02:34:43;9.17;;;8.37;;
7493;SDS011;3788;49.902;8.590;2022-08-19T02:37:10;8.37;;;7.57;;
7493;SDS011;3788;49.902;8.590;2022-08-19T02:39:57;8.43;;;7.63;;
7493;SDS011;3788;49.902;8.590;2022-08-19T02:42:24;8.50;;;7.70;;
7493;SDS011;3788;49.902;8.590;2022-08-19T02:44:50;9.10;;;8.30;;
7493;SDS011;3788;49.902;8.590;2022-08-19T02:47:19;9.00;;;8.20;;
7493;SDS011;3788;49.902;8.590;2022-08-19T02:49:45;10.50;;;9.30;;
7493;SDS011;3788;49.902;8.590;2022-08-19T02:52:13;10.07;;;9.07;;
7493;SDS011;3788;49.902;8.590;2022-08-19T02:54:40;10.10;;;9.20;;
7493;SDS011;3788;49.902;8.590;2022-08-19T02:57:07;10.43;;;9.43;;
7493;SDS011;3788;49.902;8.590;2022-08-19T02:59:34;9.97;;;9.07;;
7493;SDS011;3788;49.902;8.590;2022-08-19T03:02:00;11.07;;;9.97;;
7493;SDS011;3788;49.902;8.590;2022-08-19T03:04:29;10.47;;;9.47;;
7493;SDS011;3788;49.902;8.590;2022-08-19T03:06:55;10.63;;;9.63;;
7493;SDS011;3788;49.902;8.590;2022-08-19T03:09:22;10.67;;;9.67;;
7493;SDS011;3788;49.902;8.590;2022-08-19T03:11:49;9.37;;;8.47;;
7493;SDS011;3788;49.902;8.590;2022-08-19T03:14:16;9.80;;;8.90;;
7493;SDS011;3788;49.902;8.590;2022-08-19T03:16:45;10.30;;;9.40;;
7493;SDS011;3788;49.902;8.590;2022-08-19T03:19:13;10.23;;;9.23;;
7493;SDS011;3788;49.902;8.590;2022-08-19T03:21:43;10.63;;;9.63;;
7493;SDS011;3788;49.902;8.590;2022-08-19T03:24:11;10.13;;;9.13;;
7493;SDS011;3788;49.902;8.590;2022-08-19T03:26:38;10.63;;;9.53;;
7493;SDS011;3788;49.902;8.590;2022-08-19T03:29:07;9.70;;;8.83;;
7493;SDS011;3788;49.902;8.590;2022-08-19T03:31:35;10.67;;;9.63;;
7493;SDS011;3788;49.902;8.590;2022-08-19T03:34:05;8.97;;;8.07;;
7493;SDS011;3788;49.902;8.590;2022-08-19T03:36:32;10.20;;;9.20;;
7493;SDS011;3788;49.902;8.590;2022-08-19T03:39:00;9.93;;;9.03;;
7493;SDS011;3788;49.902;8.590;2022-08-19T03:41:28;8.80;;;8.00;;
7493;SDS011;3788;49.902;8.590;2022-08-19T03:43:56;8.93;;;8.13;;
7493;SDS011;3788;49.902;8.590;2022-08-19T03:46:24;8.90;;;8.10;;
7493;SDS011;3788;49.902;8.590;2022-08-19T03:48:54;9.57;;;8.57;;
7493;SDS011;3788;49.902;8.590;2022-08-19T03:51:24;10.33;;;9.37;;
7493;SDS011;3788;49.902;8.590;2022-08-19T03:53:52;9.97;;;9.07;;
7493;SDS011;3788;49.902;8.590;2022-08-19T03:56:23;9.70;;;8.80;;
7493;SDS011;3788;49.902;8.590;2022-08-19T03:58:51;9.30;;;8.43;;
7493;SDS011;3788;49.902;8.590;2022-08-19T04:01:19;9.23;;;8.33;;
7493;SDS011;3788;49.902;8.590;2022-08-19T04:03:48;9.37;;;8.47;;
7493;SDS011;3788;49.902;8.590;2022-08-19T04:06:17;10.57;;;9.57;;
7493;SDS011;3788;49.902;8.590;2022-08-19T04:08:46;9.87;;;8.93;;
7493;SDS011;3788;49.902;8.590;2022-08-19T04:11:16;10.00;;;9.07;;
7493;SDS011;3788;49.902;8.590;2022-08-19T04:13:47;9.03;;;8.13;;
7493;SDS011;3788;49.902;8.590;2022-08-19T04:16:16;9.13;;;8.23;;
7493;SDS011;3788;49.902;8.590;2022-08-19T04:18:43;8.67;;;7.87;;
7493;SDS011;3788;49.902;8.590;2022-08-19T04:21:14;9.17;;;8.27;;
7493;SDS011;3788;49.902;8.590;2022-08-19T04:23:43;9.33;;;8.53;;
7493;SDS011;3788;49.902;8.590;2022-08-19T04:26:12;9.43;;;8.43;;
7493;SDS011;3788;49.902;8.590;2022-08-19T04:28:40;9.57;;;8.53;;
7493;SDS011;3788;49.902;8.590;2022-08-19T04:31:11;10.73;;;9.63;;
7493;SDS011;3788;49.902;8.590;2022-08-19T04:33:40;9.70;;;8.70;;
7493;SDS011;3788;49.902;8.590;2022-08-19T04:36:08;10.60;;;9.60;;
7493;SDS011;3788;49.902;8.590;2022-08-19T04:38:41;10.33;;;9.33;;
7493;SDS011;3788;49.902;8.590;2022-08-19T04:41:08;9.87;;;8.97;;
7493;SDS011;3788;49.902;8.590;2022-08-19T04:43:55;11.40;;;10.23;;
7493;SDS011;3788;49.902;8.590;2022-08-19T04:46:23;11.47;;;10.27;;
7493;SDS011;3788;49.902;8.590;2022-08-19T04:48:50;10.87;;;9.87;;
7493;SDS011;3788;49.902;8.590;2022-08-19T04:51:17;11.60;;;10.50;;
7493;SDS011;3788;49.902;8.590;2022-08-19T04:53:45;11.70;;;10.50;;
7493;SDS011;3788;49.902;8.590;2022-08-19T04:56:13;11.13;;;10.03;;
7493;SDS011;3788;49.902;8.590;2022-08-19T04:58:42;12.43;;;11.23;;
7493;SDS011;3788;49.902;8.590;2022-08-19T05:01:11;13.47;;;12.17;;
7493;SDS011;3788;49.902;8.590;2022-08-19T05:03:40;13.47;;;12.20;;
7493;SDS011;3788;49.902;8.590;2022-08-19T05:06:08;12.10;;;10.90;;
7493;SDS011;3788;49.902;8.590;2022-08-19T05:08:38;13.57;;;12.27;;
7493;SDS011;3788;49.902;8.590;2022-08-19T05:11:08;12.97;;;11.77;;
7493;SDS011;3788;49.902;8.590;2022-08-19T05:13:38;12.07;;;10.97;;
7493;SDS011;3788;49.902;8.590;2022-08-19T05:16:05;12.37;;;11.17;;
7493;SDS011;3788;49.902;8.590;2022-08-19T05:18:33;12.37;;;11.17;;
7493;SDS011;3788;49.902;8.590;2022-08-19T05:21:18;11.20;;;10.10;;
7493;SDS011;3788;49.902;8.590;2022-08-19T05:24:04;12.37;;;11.17;;
7493;SDS011;3788;49.902;8.590;2022-08-19T05:26:33;12.27;;;11.07;;
7493;SDS011;3788;49.902;8.590;2022-08-19T05:29:01;11.37;;;10.30;;
7493;SDS011;3788;49.902;8.590;2022-08-19T05:31:28;12.75;;;11.65;;
7493;SDS011;3788;49.902;8.590;2022-08-19T05:33:55;10.97;;;9.97;;
7493;SDS011;3788;49.902;8.590;2022-08-19T05:36:24;11.17;;;10.17;;
7493;SDS011;3788;49.902;8.590;2022-08-19T05:38:51;11.03;;;10.03;;
7493;SDS011;3788;49.902;8.590;2022-08-19T05:41:19;11.13;;;10.03;;
7493;SDS011;3788;49.902;8.590;2022-08-19T05:43:48;10.93;;;9.93;;
7493;SDS011;3788;49.902;8.590;2022-08-19T05:46:16;10.90;;;9.80;;
7493;SDS011;3788;49.902;8.590;2022-08-19T05:48:45;11.33;;;10.33;;
7493;SDS011;3788;49.902;8.590;2022-08-19T05:51:12;11.07;;;10.07;;
7493;SDS011;3788;49.902;8.590;2022-08-19T05:53:40;11.57;;;10.40;;
7493;SDS011;3788;49.902;8.590;2022-08-19T05:56:08;10.47;;;9.40;;
7493;SDS011;3788;49.902;8.590;2022-08-19T05:58:36;10.60;;;9.67;;
7493;SDS011;3788;49.902;8.590;2022-08-19T06:01:04;11.13;;;10.13;;
7493;SDS011;3788;49.902;8.590;2022-08-19T06:03:36;9.33;;;8.43;;
7493;SDS011;3788;49.902;8.590;2022-08-19T06:06:05;10.13;;;9.23;;
7493;SDS011;3788;49.902;8.590;2022-08-19T06:08:33;9.83;;;8.93;;
7493;SDS011;3788;49.902;8.590;2022-08-19T06:11:19;9.00;;;8.20;;
7493;SDS011;3788;49.902;8.590;2022-08-19T06:13:48;9.60;;;8.70;;
7493;SDS011;3788;49.902;8.590;2022-08-19T06:16:17;9.53;;;8.63;;
7493;SDS011;3788;49.902;8.590;2022-08-19T06:18:47;10.03;;;9.13;;
7493;SDS011;3788;49.902;8.590;2022-08-19T06:21:16;9.83;;;9.00;;
7493;SDS011;3788;49.902;8.590;2022-08-19T06:23:44;9.67;;;8.77;;
7493;SDS011;3788;49.902;8.590;2022-08-19T06:26:12;9.30;;;8.40;;
7493;SDS011;3788;49.902;8.590;2022-08-19T06:28:42;10.03;;;9.13;;
7493;SDS011;3788;49.902;8.590;2022-08-19T06:31:11;10.20;;;9.30;;
7493;SDS011;3788;49.902;8.590;2022-08-19T06:33:49;9.93;;;9.03;;
7493;SDS011;3788;49.902;8.590;2022-08-19T06:36:16;9.23;;;8.43;;
7493;SDS011;3788;49.902;8.590;2022-08-19T06:38:44;9.60;;;8.77;;
7493;SDS011;3788;49.902;8.590;2022-08-19T06:41:11;9.97;;;9.07;;
7493;SDS011;3788;49.902;8.590;2022-08-19T06:43:38;9.47;;;8.57;;
7493;SDS011;3788;49.902;8.590;2022-08-19T06:46:10;9.67;;;8.77;;
7493;SDS011;3788;49.902;8.590;2022-08-19T06:48:39;8.90;;;8.10;;
7493;SDS011;3788;49.902;8.590;2022-08-19T06:51:06;9.97;;;8.97;;
7493;SDS011;3788;49.902;8.590;2022-08-19T06:53:33;8.90;;;8.10;;
7493;SDS011;3788;49.902;8.590;2022-08-19T06:56:00;9.67;;;8.77;;
7493;SDS011;3788;49.902;8.590;2022-08-19T06:58:27;9.37;;;8.47;;
7493;SDS011;3788;49.902;8.590;2022-08-19T07:00:57;8.47;;;7.60;;
7493;SDS011;3788;49.902;8.590;2022-08-19T07:03:28;8.17;;;7.33;;
7493;SDS011;3788;49.902;8.590;2022-08-19T07:05:57;8.37;;;7.37;;
7493;SDS011;3788;49.902;8.590;2022-08-19T07:08:28;7.83;;;7.13;;
7493;SDS011;3788;49.902;8.590;2022-08-19T07:10:54;7.90;;;7.10;;
7493;SDS011;3788;49.902;8.590;2022-08-19T07:13:21;7.70;;;6.93;;
7493;SDS011;3788;49.902;8.590;2022-08-19T07:15:48;8.10;;;7.40;;
7493;SDS011;3788;49.902;8.590;2022-08-19T07:18:16;7.33;;;6.60;;
7493;SDS011;3788;49.902;8.590;2022-08-19T07:20:44;7.63;;;6.93;;
7493;SDS011;3788;49.902;8.590;2022-08-19T07:23:11;7.40;;;6.80;;
7493;SDS011;3788;49.902;8.590;2022-08-19T07:25:39;7.63;;;6.93;;
7493;SDS011;3788;49.902;8.590;2022-08-19T07:28:06;7.73;;;7.03;;
7493;SDS011;3788;49.902;8.590;2022-08-19T07:30:35;6.53;;;6.03;;
7493;SDS011;3788;49.902;8.590;2022-08-19T07:33:03;6.03;;;5.53;;
7493;SDS011;3788;49.902;8.590;2022-08-19T07:35:30;6.37;;;5.87;;
7493;SDS011;3788;49.902;8.590;2022-08-19T07:38:00;6.13;;;5.53;;
7493;SDS011;3788;49.902;8.590;2022-08-19T07:40:28;6.40;;;5.90;;
7493;SDS011;3788;49.902;8.590;2022-08-19T07:42:55;5.97;;;5.47;;
7493;SDS011;3788;49.902;8.590;2022-08-19T07:45:22;6.03;;;5.50;;
7493;SDS011;3788;49.902;8.590;2022-08-19T07:47:49;6.10;;;5.60;;
7493;SDS011;3788;49.902;8.590;2022-08-19T07:50:17;5.70;;;5.10;;
7493;SDS011;3788;49.902;8.590;2022-08-19T07:52:45;5.03;;;4.63;;
7493;SDS011;3788;49.902;8.590;2022-08-19T07:55:17;5.67;;;4.90;;
7493;SDS011;3788;49.902;8.590;2022-08-19T07:57:45;5.20;;;4.80;;
7493;SDS011;3788;49.902;8.590;2022-08-19T08:00:12;4.90;;;4.50;;
7493;SDS011;3788;49.902;8.590;2022-08-19T08:02:40;4.90;;;4.50;;
7493;SDS011;3788;49.902;8.590;2022-08-19T08:05:07;4.80;;;4.40;;
7493;SDS011;3788;49.902;8.590;2022-08-19T08:07:52;4.37;;;4.07;;
7493;SDS011;3788;49.902;8.590;2022-08-19T08:10:37;5.20;;;4.40;;
7493;SDS011;3788;49.902;8.590;2022-08-19T08:13:04;4.57;;;4.27;;
7493;SDS011;3788;49.902;8.590;2022-08-19T08:15:30;5.37;;;4.33;;
7493;SDS011;3788;49.902;8.590;2022-08-19T08:17:57;4.80;;;4.30;;
7493;SDS011;3788;49.902;8.590;2022-08-19T08:20:24;5.13;;;4.73;;
7493;SDS011;3788;49.902;8.590;2022-08-19T08:22:51;4.20;;;3.87;;
7493;SDS011;3788;49.902;8.590;2022-08-19T08:25:36;4.30;;;4.00;;
7493;SDS011;3788;49.902;8.590;2022-08-19T08:28:04;5.07;;;4.63;;
7493;SDS011;3788;49.902;8.590;2022-08-19T08:30:32;4.77;;;4.37;;
7493;SDS011;3788;49.902;8.590;2022-08-19T08:33:00;4.60;;;4.20;;
7493;SDS011;3788;49.902;8.590;2022-08-19T08:35:27;4.70;;;4.30;;
7493;SDS011;3788;49.902;8.590;2022-08-19T08:37:54;4.70;;;4.30;;
7493;SDS011;3788;49.902;8.590;2022-08-19T08:40:22;5.30;;;4.80;;
7493;SDS011;3788;49.902;8.590;2022-08-19T08:42:55;4.70;;;4.30;;
7493;SDS011;3788;49.902;8.590;2022-08-19T08:45:27;5.10;;;4.60;;
7493;SDS011;3788;49.902;8.590;2022-08-19T08:47:56;4.83;;;4.37;;
7493;SDS011;3788;49.902;8.590;2022-08-19T08:50:29;5.00;;;4.50;;
7493;SDS011;3788;49.902;8.590;2022-08-19T08:53:00;4.53;;;4.10;;
7493;SDS011;3788;49.902;8.590;2022-08-19T08:55:29;4.40;;;4.10;;
7493;SDS011;3788;49.902;8.590;2022-08-19T08:58:00;4.50;;;4.10;;
7493;SDS011;3788;49.902;8.590;2022-08-19T09:00:31;4.70;;;4.30;;
7493;SDS011;3788;49.902;8.590;2022-08-19T09:03:00;4.37;;;4.07;;
7493;SDS011;3788;49.902;8.590;2022-08-19T09:05:31;4.27;;;3.93;;
7493;SDS011;3788;49.902;8.590;2022-08-19T09:08:12;4.20;;;3.90;;
7493;SDS011;3788;49.902;8.590;2022-08-19T09:10:44;4.40;;;4.10;;
7493;SDS011;3788;49.902;8.590;2022-08-19T09:13:18;4.67;;;4.27;;
7493;SDS011;3788;49.902;8.590;2022-08-19T09:15:53;4.77;;;4.37;;
7493;SDS011;3788;49.902;8.590;2022-08-19T09:18:24;4.47;;;4.17;;
7493;SDS011;3788;49.902;8.590;2022-08-19T09:20:50;4.40;;;4.00;;
7493;SDS011;3788;49.902;8.590;2022-08-19T09:23:17;4.43;;;4.03;;
7493;SDS011;3788;49.902;8.590;2022-08-19T09:25:46;4.73;;;4.43;;
7493;SDS011;3788;49.902;8.590;2022-08-19T09:28:12;4.70;;;4.30;;
7493;SDS011;3788;49.902;8.590;2022-08-19T09:30:41;4.70;;;4.40;;
7493;SDS011;3788;49.902;8.590;2022-08-19T09:33:08;4.53;;;4.13;;
7493;SDS011;3788;49.902;8.590;2022-08-19T09:35:35;4.43;;;4.13;;
7493;SDS011;3788;49.902;8.590;2022-08-19T09:38:02;5.27;;;4.87;;
7493;SDS011;3788;49.902;8.590;2022-08-19T09:40:29;4.73;;;4.43;;
7493;SDS011;3788;49.902;8.590;2022-08-19T09:42:56;5.47;;;5.07;;
7493;SDS011;3788;49.902;8.590;2022-08-19T09:45:27;6.57;;;4.93;;
7493;SDS011;3788;49.902;8.590;2022-08-19T09:47:56;5.53;;;5.10;;
7493;SDS011;3788;49.902;8.590;2022-08-19T09:50:23;5.63;;;5.20;;
7493;SDS011;3788;49.902;8.590;2022-08-19T09:52:50;6.60;;;6.00;;
7493;SDS011;3788;49.902;8.590;2022-08-19T09:55:18;6.07;;;5.67;;
7493;SDS011;3788;49.902;8.590;2022-08-19T09:57:45;4.97;;;4.67;;
7493;SDS011;3788;49.902;8.590;2022-08-19T10:00:12;5.23;;;4.83;;
7493;SDS011;3788;49.902;8.590;2022-08-19T10:02:39;5.50;;;5.00;;
7493;SDS011;3788;49.902;8.590;2022-08-19T10:05:07;5.70;;;5.20;;
7493;SDS011;3788;49.902;8.590;2022-08-19T10:07:51;5.33;;;4.93;;
7493;SDS011;3788;49.902;8.590;2022-08-19T10:10:19;5.20;;;4.80;;
7493;SDS011;3788;49.902;8.590;2022-08-19T10:12:46;5.70;;;5.30;;
7493;SDS011;3788;49.902;8.590;2022-08-19T10:15:13;5.90;;;5.40;;
7493;SDS011;3788;49.902;8.590;2022-08-19T10:17:40;6.30;;;5.80;;
7493;SDS011;3788;49.902;8.590;2022-08-19T10:20:09;5.47;;;5.07;;
7493;SDS011;3788;49.902;8.590;2022-08-19T10:22:36;5.63;;;5.13;;
7493;SDS011;3788;49.902;8.590;2022-08-19T10:25:04;6.33;;;5.27;;
7493;SDS011;3788;49.902;8.590;2022-08-19T10:27:32;5.70;;;5.20;;
7493;SDS011;3788;49.902;8.590;2022-08-19T10:29:58;6.03;;;5.57;;
7493;SDS011;3788;49.902;8.590;2022-08-19T10:32:26;6.23;;;5.67;;
7493;SDS011;3788;49.902;8.590;2022-08-19T10:34:54;7.17;;;6.57;;
7493;SDS011;3788;49.902;8.590;2022-08-19T10:37:22;7.17;;;6.50;;
7493;SDS011;3788;49.902;8.590;2022-08-19T10:39:49;6.67;;;6.10;;
7493;SDS011;3788;49.902;8.590;2022-08-19T10:42:16;6.77;;;6.17;;
7493;SDS011;3788;49.902;8.590;2022-08-19T10:44:43;6.67;;;6.17;;
7493;SDS011;3788;49.902;8.590;2022-08-19T10:47:11;5.97;;;5.53;;
7493;SDS011;3788;49.902;8.590;2022-08-19T10:49:38;6.17;;;5.67;;
7493;SDS011;3788;49.902;8.590;2022-08-19T10:52:26;6.27;;;5.77;;
7493;SDS011;3788;49.902;8.590;2022-08-19T10:55:02;6.60;;;5.97;;
7493;SDS011;3788;49.902;8.590;2022-08-19T10:57:49;6.30;;;5.80;;
7493;SDS011;3788;49.902;8.590;2022-08-19T11:00:17;5.90;;;5.40;;
7493;SDS011;3788;49.902;8.590;2022-08-19T11:02:45;6.50;;;5.90;;
7493;SDS011;3788;49.902;8.590;2022-08-19T11:05:12;5.87;;;5.37;;
7493;SDS011;3788;49.902;8.590;2022-08-19T11:07:41;6.50;;;6.00;;
7493;SDS011;3788;49.902;8.590;2022-08-19T11:10:10;7.37;;;6.77;;
7493;SDS011;3788;49.902;8.590;2022-08-19T11:12:39;7.00;;;6.50;;
7493;SDS011;3788;49.902;8.590;2022-08-19T11:15:07;7.30;;;6.73;;
7493;SDS011;3788;49.902;8.590;2022-08-19T11:17:36;7.70;;;7.10;;
7493;SDS011;3788;49.902;8.590;2022-08-19T11:20:07;6.83;;;6.20;;
7493;SDS011;3788;49.902;8.590;2022-08-19T11:22:35;6.90;;;6.40;;
7493;SDS011;3788;49.902;8.590;2022-08-19T11:25:03;7.33;;;6.73;;
7493;SDS011;3788;49.902;8.590;2022-08-19T11:27:30;7.33;;;6.70;;
7493;SDS011;3788;49.902;8.590;2022-08-19T11:29:57;6.87;;;6.30;;
7493;SDS011;3788;49.902;8.590;2022-08-19T11:32:24;7.23;;;6.63;;
7493;SDS011;3788;49.902;8.590;2022-08-19T11:34:51;7.53;;;6.93;;
7493;SDS011;3788;49.902;8.590;2022-08-19T11:37:17;7.20;;;6.60;;
7493;SDS011;3788;49.902;8.590;2022-08-19T11:39:44;7.37;;;6.77;;
7493;SDS011;3788;49.902;8.590;2022-08-19T11:42:12;7.27;;;6.67;;
7493;SDS011;3788;49.902;8.590;2022-08-19T11:44:57;7.03;;;6.53;;
7493;SDS011;3788;49.902;8.590;2022-08-19T11:47:24;8.23;;;7.53;;
7493;SDS011;3788;49.902;8.590;2022-08-19T11:49:51;8.07;;;7.37;;
7493;SDS011;3788;49.902;8.590;2022-08-19T11:52:18;8.57;;;7.87;;
7493;SDS011;3788;49.902;8.590;2022-08-19T11:54:45;9.53;;;8.60;;
7493;SDS011;3788;49.902;8.590;2022-08-19T11:57:13;9.33;;;8.43;;
7493;SDS011;3788;49.902;8.590;2022-08-19T11:59:41;8.87;;;8.07;;
7493;SDS011;3788;49.902;8.590;2022-08-19T12:02:08;8.80;;;8.10;;
7493;SDS011;3788;49.902;8.590;2022-08-19T12:04:35;10.03;;;9.23;;
7493;SDS011;3788;49.902;8.590;2022-08-19T12:07:02;9.87;;;9.03;;
7493;SDS011;3788;49.902;8.590;2022-08-19T12:09:29;10.00;;;9.10;;
7493;SDS011;3788;49.902;8.590;2022-08-19T12:11:56;8.77;;;7.97;;
7493;SDS011;3788;49.902;8.590;2022-08-19T12:14:25;8.47;;;7.77;;
7493;SDS011;3788;49.902;8.590;2022-08-19T12:16:52;7.77;;;7.17;;
7493;SDS011;3788;49.902;8.590;2022-08-19T12:19:19;9.03;;;8.23;;
7493;SDS011;3788;49.902;8.590;2022-08-19T12:21:46;9.40;;;8.60;;
7493;SDS011;3788;49.902;8.590;2022-08-19T12:24:13;8.47;;;7.77;;
7493;SDS011;3788;49.902;8.590;2022-08-19T12:26:40;8.87;;;8.17;;
7493;SDS011;3788;49.902;8.590;2022-08-19T12:29:07;7.47;;;6.87;;
7493;SDS011;3788;49.902;8.590;2022-08-19T12:31:35;7.30;;;6.70;;
7493;SDS011;3788;49.902;8.590;2022-08-19T12:34:02;6.87;;;6.20;;
7493;SDS011;3788;49.902;8.590;2022-08-19T12:36:29;6.50;;;5.90;;
7493;SDS011;3788;49.902;8.590;2022-08-19T12:38:57;5.80;;;5.30;;
7493;SDS011;3788;49.902;8.590;2022-08-19T12:41:24;6.47;;;5.87;;
7493;SDS011;3788;49.902;8.590;2022-08-19T12:43:51;5.70;;;5.30;;
7493;SDS011;3788;49.902;8.590;2022-08-19T12:46:19;5.47;;;5.07;;
7493;SDS011;3788;49.902;8.590;2022-08-19T12:48:47;5.83;;;5.43;;
7493;SDS011;3788;49.902;8.590;2022-08-19T12:51:15;6.53;;;5.97;;
7493;SDS011;3788;49.902;8.590;2022-08-19T12:53:45;5.57;;;5.07;;
7493;SDS011;3788;49.902;8.590;2022-08-19T12:56:12;5.33;;;4.93;;
7493;SDS011;3788;49.902;8.590;2022-08-19T12:58:40;5.13;;;4.70;;
7493;SDS011;3788;49.902;8.590;2022-08-19T13:01:08;5.63;;;5.23;;
7493;SDS011;3788;49.902;8.590;2022-08-19T13:03:36;5.50;;;5.10;;
7493;SDS011;3788;49.902;8.590;2022-08-19T13:06:05;5.90;;;5.47;;
7493;SDS011;3788;49.902;8.590;2022-08-19T13:08:32;5.00;;;4.70;;
7493;SDS011;3788;49.902;8.590;2022-08-19T13:11:06;5.40;;;5.00;;
7493;SDS011;3788;49.902;8.590;2022-08-19T13:13:33;4.70;;;4.40;;
7493;SDS011;3788;49.902;8.590;2022-08-19T13:16:00;5.27;;;4.87;;
7493;SDS011;3788;49.902;8.590;2022-08-19T13:18:28;5.10;;;4.70;;
7493;SDS011;3788;49.902;8.590;2022-08-19T13:20:54;4.40;;;4.10;;
7493;SDS011;3788;49.902;8.590;2022-08-19T13:23:23;5.17;;;4.77;;
7493;SDS011;3788;49.902;8.590;2022-08-19T13:25:56;5.87;;;5.27;;
7493;SDS011;3788;49.902;8.590;2022-08-19T13:28:23;5.17;;;4.77;;
7493;SDS011;3788;49.902;8.590;2022-08-19T13:30:50;4.93;;;4.53;;
7493;SDS011;3788;49.902;8.590;2022-08-19T13:33:34;5.13;;;4.73;;
7493;SDS011;3788;49.902;8.590;2022-08-19T13:36:01;5.03;;;4.73;;
7493;SDS011;3788;49.902;8.590;2022-08-19T13:38:32;4.83;;;4.43;;
7493;SDS011;3788;49.902;8.590;2022-08-19T13:41:03;4.03;;;3.83;;
7493;SDS011;3788;49.902;8.590;2022-08-19T13:43:31;4.40;;;4.10;;
7493;SDS011;3788;49.902;8.590;2022-08-19T13:45:58;4.33;;;3.97;;
7493;SDS011;3788;49.902;8.590;2022-08-19T13:48:25;4.60;;;4.23;;
7493;SDS011;3788;49.902;8.590;2022-08-19T13:50:52;4.73;;;4.33;;
7493;SDS011;3788;49.902;8.590;2022-08-19T13:53:19;4.10;;;3.80;;
7493;SDS011;3788;49.902;8.590;2022-08-19T13:55:47;4.40;;;4.00;;
7493;SDS011;3788;49.902;8.590;2022-08-19T13:58:15;3.73;;;3.43;;
7493;SDS011;3788;49.902;8.590;2022-08-19T14:00:42;3.60;;;3.30;;
7493;SDS011;3788;49.902;8.590;2022-08-19T14:03:15;3.90;;;3.60;;
7493;SDS011;3788;49.902;8.590;2022-08-19T14:05:42;3.77;;;3.57;;
7493;SDS011;3788;49.902;8.590;2022-08-19T14:08:11;4.17;;;3.87;;
7493;SDS011;3788;49.902;8.590;2022-08-19T14:10:38;3.60;;;3.30;;
7493;SDS011;3788;49.902;8.590;2022-08-19T14:13:07;4.03;;;3.73;;
7493;SDS011;3788;49.902;8.590;2022-08-19T14:15:34;3.43;;;3.23;;
7493;SDS011;3788;49.902;8.590;2022-08-19T14:18:02;4.20;;;3.80;;
7493;SDS011;3788;49.902;8.590;2022-08-19T14:20:29;3.87;;;3.57;;
7493;SDS011;3788;49.902;8.590;2022-08-19T14:22:55;3.97;;;3.67;;
7493;SDS011;3788;49.902;8.590;2022-08-19T14:25:22;3.90;;;3.60;;
7493;SDS011;3788;49.902;8.590;2022-08-19T14:27:50;4.20;;;3.80;;
7493;SDS011;3788;49.902;8.590;2022-08-19T14:30:20;3.97;;;3.70;;
7493;SDS011;3788;49.902;8.590;2022-08-19T14:32:50;4.50;;;4.10;;
7493;SDS011;3788;49.902;8.590;2022-08-19T14:35:17;4.07;;;3.77;;
7493;SDS011;3788;49.902;8.590;2022-08-19T14:37:44;3.80;;;3.60;;
7493;SDS011;3788;49.902;8.590;2022-08-19T14:40:11;4.40;;;4.00;;
7493;SDS011;3788;49.902;8.590;2022-08-19T14:42:40;3.80;;;3.50;;
7493;SDS011;3788;49.902;8.590;2022-08-19T14:45:08;4.60;;;4.23;;
7493;SDS011;3788;49.902;8.590;2022-08-19T14:47:37;4.20;;;3.90;;
7493;SDS011;3788;49.902;8.590;2022-08-19T14:50:05;4.63;;;4.33;;
7493;SDS011;3788;49.902;8.590;2022-08-19T14:52:32;4.50;;;4.07;;
7493;SDS011;3788;49.902;8.590;2022-08-19T14:54:59;5.20;;;4.80;;
7493;SDS011;3788;49.902;8.590;2022-08-19T14:57:26;4.57;;;4.20;;
7493;SDS011;3788;49.902;8.590;2022-08-19T14:59:52;4.83;;;4.43;;
7493;SDS011;3788;49.902;8.590;2022-08-19T15:02:19;5.07;;;4.70;;
7493;SDS011;3788;49.902;8.590;2022-08-19T15:04:47;5.07;;;4.70;;
7493;SDS011;3788;49.902;8.590;2022-08-19T15:07:15;4.33;;;4.03;;
7493;SDS011;3788;49.902;8.590;2022-08-19T15:09:41;5.57;;;5.07;;
7493;SDS011;3788;49.902;8.590;2022-08-19T15:12:08;4.73;;;4.43;;
7493;SDS011;3788;49.902;8.590;2022-08-19T15:14:35;5.37;;;5.03;;
7493;SDS011;3788;49.902;8.590;2022-08-19T15:17:03;4.53;;;4.23;;
7493;SDS011;3788;49.902;8.590;2022-08-19T15:19:30;5.53;;;5.07;;
7493;SDS011;3788;49.902;8.590;2022-08-19T15:21:59;5.10;;;4.70;;